METAR Data

Data at: 0713 UTC 28 Sep 2022

METAR for:CYSJ (Saint John Arpt, NB, CA)
Text:CYSJ 280700Z 17007KT 3/4SM R23/P6000FT/N BR VV002 13/13 A2990 RMK FG8 SLP128
Temperature: 13.0°C ( 55°F)
Dewpoint: 13.0°C ( 55°F) [RH = 100%]
Pressure (altimeter):29.90 inches Hg (1012.6 mb) [Sea level pressure: 1012.8 mb]
Winds:from the S (170 degrees) at 8 MPH (7 knots; 3.6 m/s)
Visibility: 0.75 sm ( 1.21 km)
Ceiling:indefinite ceiling with vertical visibility of 200 feet AGL
Clouds:obscured sky
Weather:BR (mist)